Time;durP1;ratioP1;P1;durP2;ratioP2;P2;SDS_P1;SDS_P2;PMS_P1;PMS_P2;Temp;Humidity;BMP_temperature;BMP_pressure;BME280_temperature;BME280_humidity;BME280_pressure;Samples;Min_cycle;Max_cycle;Signal;HPM_P1;HPM_P2
2021/10/10 00:00:17;;;;;;;18.58;8.85;;;;;;;1.69;78.34;103357.78;5078529;28;21579;-76
2021/10/10 00:02:42;;;;;;;19.90;9.48;;;;;;;1.67;77.76;103354.41;5066162;28;20020;-75
2021/10/10 00:05:08;;;;;;;19.15;9.52;;;;;;;1.58;78.41;103355.16;5064980;28;21104;-75
2021/10/10 00:07:34;;;;;;;21.40;9.98;;;;;;;1.58;78.06;103349.88;5064513;28;20029;-75
2021/10/10 00:09:59;;;;;;;18.92;9.32;;;;;;;1.51;78.00;103348.72;5065917;28;20402;-75
2021/10/10 00:12:25;;;;;;;19.30;9.15;;;;;;;1.49;78.13;103345.34;5063349;28;20046;-75
2021/10/10 00:14:50;;;;;;;17.60;8.85;;;;;;;1.33;79.46;103351.03;5066440;28;20047;-74
2021/10/10 00:17:16;;;;;;;16.90;9.05;;;;;;;1.35;78.72;103340.34;5063795;28;20028;-75
2021/10/10 00:19:42;;;;;;;20.63;8.85;;;;;;;1.33;78.92;103345.75;5065229;28;20055;-75
2021/10/10 00:22:07;;;;;;;17.13;9.40;;;;;;;1.29;79.32;103340.84;5067841;28;20100;-75
2021/10/10 00:24:33;;;;;;;20.52;9.77;;;;;;;1.16;80.83;103335.69;5058469;28;20036;-75
2021/10/10 00:26:58;;;;;;;16.33;9.00;;;;;;;1.15;80.66;103328.75;5068973;28;20497;-75
2021/10/10 00:29:24;;;;;;;14.63;9.15;;;;;;;1.16;80.50;103330.41;5064196;28;20027;-75
2021/10/10 00:31:49;;;;;;;22.48;11.20;;;;;;;1.15;80.55;103326.09;5065169;28;20056;-75
2021/10/10 00:34:15;;;;;;;14.25;9.15;;;;;;;1.15;79.94;103329.59;5063827;28;20589;-74
2021/10/10 00:36:40;;;;;;;17.98;9.30;;;;;;;1.15;79.66;103320.81;5065411;28;20056;-75
2021/10/10 00:39:06;;;;;;;16.73;9.20;;;;;;;1.11;79.18;103322.03;5059652;28;20052;-75
2021/10/10 00:41:32;;;;;;;18.60;10.48;;;;;;;1.10;78.97;103317.72;5062800;28;20029;-75
2021/10/10 00:43:57;;;;;;;18.88;8.93;;;;;;;1.05;79.88;103322.50;5064953;28;20066;-75
2021/10/10 00:46:22;;;;;;;15.70;8.77;;;;;;;1.03;79.58;103313.88;5059990;28;20030;-75
2021/10/10 00:48:48;;;;;;;19.17;8.48;;;;;;;1.03;79.22;103321.78;5062739;28;20406;-75
2021/10/10 00:51:13;;;;;;;18.52;9.55;;;;;;;1.02;79.21;103309.56;5062150;28;20059;-75
2021/10/10 00:53:39;;;;;;;18.58;9.38;;;;;;;0.96;79.95;103317.97;5058612;28;20025;-75
2021/10/10 00:56:06;;;;;;;20.45;10.52;;;;;;;0.96;79.54;103313.53;5080743;28;20030;-75
2021/10/10 00:58:32;;;;;;;16.85;8.65;;;;;;;0.97;78.98;103312.56;5066556;28;20032;-75
2021/10/10 01:00:58;;;;;;;19.33;9.43;;;;;;;0.89;79.79;103309.69;5064354;28;20056;-75
2021/10/10 01:03:24;;;;;;;21.35;10.70;;;;;;;0.86;79.55;103310.78;5063319;28;20060;-75
2021/10/10 01:05:50;;;;;;;20.77;9.48;;;;;;;0.84;79.63;103307.41;5064023;28;20020;-75
2021/10/10 01:08:17;;;;;;;17.52;9.65;;;;;;;0.79;80.08;103308.75;5066117;28;20028;-75
2021/10/10 01:10:48;;;;;;;24.25;11.82;;;;;;;0.68;81.18;103300.84;5062441;28;20031;-75
2021/10/10 01:13:14;;;;;;;26.80;12.32;;;;;;;0.72;80.80;103295.22;5054024;28;20031;-75
2021/10/10 01:15:40;;;;;;;22.95;11.40;;;;;;;0.69;81.47;103295.44;5076104;28;20385;-75
2021/10/10 01:18:06;;;;;;;20.67;11.48;;;;;;;0.68;81.81;103298.19;5064184;28;20027;-75
2021/10/10 01:20:43;;;;;;;23.02;10.57;;;;;;;0.60;82.14;103296.16;5060479;28;20102;-75
2021/10/10 01:23:09;;;;;;;21.65;11.07;;;;;;;0.63;81.40;103297.72;5071917;28;20495;-75
2021/10/10 01:25:34;;;;;;;25.85;11.60;;;;;;;0.59;81.09;103299.78;5064882;28;20028;-75
2021/10/10 01:28:00;;;;;;;19.27;10.45;;;;;;;0.60;81.04;103296.16;5064622;28;20017;-75
2021/10/10 01:30:25;;;;;;;23.30;10.95;;;;;;;0.59;80.96;103300.59;5058441;28;20063;-75
2021/10/10 01:32:54;;;;;;;21.13;11.32;;;;;;;0.53;82.26;103294.94;5060422;28;20041;-74
2021/10/10 01:35:20;;;;;;;26.08;12.02;;;;;;;0.52;82.16;103290.63;5061982;28;20111;-75
2021/10/10 01:37:45;;;;;;;22.77;11.70;;;;;;;0.47;82.63;103293.66;5064626;28;20024;-75
2021/10/10 01:40:11;;;;;;;24.42;12.05;;;;;;;0.47;82.22;103279.63;5062474;28;20467;-75
2021/10/10 01:42:37;;;;;;;30.90;12.75;;;;;;;0.43;82.20;103280.81;5060771;28;20025;-75
2021/10/10 01:45:04;;;;;;;23.40;13.40;;;;;;;0.47;81.55;103282.25;5064027;28;20028;-74
2021/10/10 01:47:29;;;;;;;24.88;13.35;;;;;;;0.44;82.36;103279.84;5064010;28;20843;-74
2021/10/10 01:49:55;;;;;;;25.67;13.27;;;;;;;0.45;82.32;103278.91;5062247;28;20028;-75
2021/10/10 01:52:20;;;;;;;25.67;13.52;;;;;;;0.43;82.32;103278.19;5060662;28;20493;-74
2021/10/10 01:54:46;;;;;;;25.52;12.85;;;;;;;0.38;82.36;103275.91;5061746;28;20016;-75
2021/10/10 01:57:11;;;;;;;24.77;13.20;;;;;;;0.30;83.71;103273.00;5065166;28;20609;-74
2021/10/10 01:59:37;;;;;;;21.00;12.43;;;;;;;0.29;82.77;103269.53;5065024;28;20505;-74
2021/10/10 02:02:02;;;;;;;26.20;12.60;;;;;;;0.29;82.03;103266.91;5065806;28;20071;-74
2021/10/10 02:04:28;;;;;;;21.73;11.93;;;;;;;0.26;82.45;103267.16;5064388;28;20032;-74
2021/10/10 02:06:53;;;;;;;25.83;14.15;;;;;;;0.24;82.40;103270.84;5067379;28;20107;-74
2021/10/10 02:09:19;;;;;;;23.85;11.95;;;;;;;0.21;82.38;103264.03;5063028;28;20032;-74
2021/10/10 02:11:44;;;;;;;22.25;12.23;;;;;;;0.15;82.53;103264.47;5064472;28;20019;-74
2021/10/10 02:14:10;;;;;;;23.35;13.27;;;;;;;0.12;83.40;103264.72;5063330;28;20048;-75
2021/10/10 02:16:35;;;;;;;27.90;14.23;;;;;;;0.12;83.16;103264.72;5061842;28;20028;-74
2021/10/10 02:19:01;;;;;;;27.52;13.77;;;;;;;0.05;84.39;103263.53;5062324;28;20025;-75
2021/10/10 02:21:26;;;;;;;27.77;14.18;;;;;;;-0.02;85.83;103267.56;5059964;28;20052;-74
2021/10/10 02:23:52;;;;;;;24.48;12.93;;;;;;;-0.07;86.95;103264.44;5063231;28;20028;-75
2021/10/10 02:26:17;;;;;;;19.65;10.88;;;;;;;-0.04;85.96;103258.94;5067382;28;20017;-74
2021/10/10 02:28:42;;;;;;;22.65;12.38;;;;;;;-0.05;84.38;103262.53;5059717;28;20031;-74
2021/10/10 02:31:08;;;;;;;25.02;12.73;;;;;;;-0.06;84.27;103260.84;5060755;28;20021;-74
2021/10/10 02:33:33;;;;;;;25.35;13.80;;;;;;;-0.08;83.76;103258.34;5064546;28;20020;-74
2021/10/10 02:35:59;;;;;;;25.48;14.10;;;;;;;-0.12;83.39;103256.06;5058821;28;20021;-74
2021/10/10 02:38:24;;;;;;;24.38;12.75;;;;;;;-0.14;nan;103252.72;5062338;28;20028;-74
2021/10/10 02:40:50;;;;;;;22.13;12.23;;;;;;;-0.18;83.69;103249.47;5068813;28;20478;-74
2021/10/10 02:43:15;;;;;;;20.35;10.77;;;;;;;-0.25;84.47;103239.50;5058398;28;20025;-75
2021/10/10 02:45:41;;;;;;;20.73;11.13;;;;;;;-0.34;85.29;103241.88;5060846;28;20028;-74
2021/10/10 02:48:06;;;;;;;19.58;11.50;;;;;;;-0.31;84.31;103244.28;5064926;28;20036;-74
2021/10/10 02:50:32;;;;;;;19.67;10.80;;;;;;;-0.29;84.40;103235.44;5066484;28;20056;-74
2021/10/10 02:52:58;;;;;;;23.20;10.88;;;;;;;-0.35;84.28;103229.66;5063723;28;20021;-74
2021/10/10 02:55:24;;;;;;;21.88;11.20;;;;;;;-0.33;84.25;103237.47;5059834;28;20471;-74
2021/10/10 02:57:49;;;;;;;20.83;11.30;;;;;;;-0.36;84.10;103233.25;5063807;28;20031;-75
2021/10/10 03:00:15;;;;;;;21.45;10.32;;;;;;;-0.35;84.03;103232.31;5065103;28;20040;-74
2021/10/10 03:02:40;;;;;;;23.52;11.85;;;;;;;-0.35;83.40;103239.38;5061462;28;20025;-74
2021/10/10 03:05:06;;;;;;;22.35;11.57;;;;;;;-0.37;84.49;103235.97;5064615;28;20028;-74
2021/10/10 03:07:32;;;;;;;21.27;11.68;;;;;;;-0.40;84.67;103236.22;5067956;28;20054;-75
2021/10/10 03:09:57;;;;;;;23.88;11.60;;;;;;;-0.42;84.51;103232.88;5069557;28;20017;-74
2021/10/10 03:12:23;;;;;;;23.02;11.48;;;;;;;-0.47;84.13;103243.75;5070381;28;20070;-75
2021/10/10 03:14:48;;;;;;;22.98;11.13;;;;;;;-0.56;85.66;103233.88;5064897;28;20447;-75
2021/10/10 03:17:13;;;;;;;26.02;12.65;;;;;;;-0.55;85.53;103230.31;5068019;28;20028;-75
2021/10/10 03:19:39;;;;;;;23.70;11.93;;;;;;;-0.54;84.74;103224.06;5071105;28;20028;-75
2021/10/10 03:22:04;;;;;;;22.30;12.02;;;;;;;-0.59;86.03;103215.69;5068140;28;20955;-75
2021/10/10 03:24:30;;;;;;;24.73;12.23;;;;;;;-0.58;85.48;103224.44;5066681;28;20024;-75
2021/10/10 03:26:56;;;;;;;25.80;12.57;;;;;;;-0.58;85.77;103216.53;5066055;28;20165;-75
2021/10/10 03:29:21;;;;;;;23.95;12.68;;;;;;;-0.57;85.44;103224.31;5065797;28;20113;-75
2021/10/10 03:31:47;;;;;;;29.90;14.23;;;;;;;-0.60;85.35;103211.38;5062854;28;20046;-74
2021/10/10 03:34:12;;;;;;;21.95;11.98;;;;;;;-0.63;85.38;103217.72;5066257;28;20024;-75
2021/10/10 03:36:38;;;;;;;27.38;12.68;;;;;;;-0.66;86.00;103206.59;5067258;28;20028;-75
2021/10/10 03:39:03;;;;;;;25.90;12.55;;;;;;;-0.63;85.34;103204.56;5081192;28;20032;-75
2021/10/10 03:41:29;;;;;;;22.60;12.52;;;;;;;-0.61;85.36;103207.06;5067487;28;20486;-75
2021/10/10 03:43:54;;;;;;;25.05;11.90;;;;;;;-0.63;85.92;103212.44;5061939;28;21036;-74
2021/10/10 03:46:20;;;;;;;24.20;12.93;;;;;;;-0.64;85.65;103207.31;5069568;28;20394;-75
2021/10/10 03:48:45;;;;;;;26.80;13.13;;;;;;;-0.67;85.53;103207.53;5066207;28;20077;-75
2021/10/10 03:51:11;;;;;;;24.05;11.85;;;;;;;-0.64;84.96;103210.78;5062224;28;20406;-75
2021/10/10 03:56:20;;;;;;;25.02;13.07;;;;;;;-0.71;85.71;103206.09;5068549;28;20048;-75
2021/10/10 03:58:46;;;;;;;22.40;11.18;;;;;;;-0.73;85.13;103200.06;5064241;28;20024;-75
2021/10/10 04:01:11;;;;;;;23.88;12.07;;;;;;;-0.77;85.37;103193.38;5065212;28;20025;-75
2021/10/10 04:03:37;;;;;;;25.58;12.25;;;;;;;-0.80;85.00;103201.50;5061865;28;20116;-75
2021/10/10 04:06:03;;;;;;;24.38;12.38;;;;;;;-0.88;85.83;103199.44;5067263;28;20024;-75
2021/10/10 04:08:30;;;;;;;23.73;12.70;;;;;;;-0.89;85.58;103203.03;5068001;28;20039;-75
2021/10/10 04:10:55;;;;;;;24.83;12.20;;;;;;;-0.94;86.03;103208.59;5067747;28;20158;-75
2021/10/10 04:13:21;;;;;;;24.00;11.88;;;;;;;-0.93;85.90;103204.19;5069535;28;20107;-75
2021/10/10 04:15:46;;;;;;;25.88;11.48;;;;;;;-0.93;85.63;103196.28;5062748;28;20028;-75
2021/10/10 04:18:11;;;;;;;22.67;11.20;;;;;;;-0.95;85.09;103203.47;5063844;28;20040;-75
2021/10/10 04:20:37;;;;;;;23.02;11.52;;;;;;;-1.00;85.10;103193.28;5060280;28;20040;-75
2021/10/10 04:23:02;;;;;;;18.80;10.23;;;;;;;-1.02;84.84;103189.91;5064662;28;20023;-75
2021/10/10 04:25:28;;;;;;;24.02;11.15;;;;;;;-1.02;85.04;103197.81;5067675;28;20036;-75
2021/10/10 04:27:54;;;;;;;20.77;11.68;;;;;;;-1.10;85.68;103189.63;5065112;28;20028;-75
2021/10/10 04:30:19;;;;;;;26.20;12.45;;;;;;;-1.13;84.96;103195.13;5061913;28;20032;-75
2021/10/10 04:32:45;;;;;;;27.35;12.82;;;;;;;-1.14;85.22;103192.59;5064970;28;20162;-75
2021/10/10 04:35:12;;;;;;;23.25;11.63;;;;;;;-1.20;85.87;103193.91;5062964;28;20036;-75
2021/10/10 04:37:38;;;;;;;23.60;11.43;;;;;;;-1.22;85.50;103201.06;5064446;28;20025;-75
2021/10/10 04:40:05;;;;;;;24.73;12.10;;;;;;;-1.24;85.30;103198.53;5072076;28;20442;-75
2021/10/10 04:42:36;;;;;;;21.73;11.45;;;;;;;-1.29;86.02;103198.00;5060685;28;20024;-75
2021/10/10 04:45:03;;;;;;;31.35;13.25;;;;;;;-1.30;86.50;103192.88;5058181;28;20021;-75
2021/10/10 04:47:29;;;;;;;26.85;12.23;;;;;;;-1.32;86.33;103189.50;5054912;28;20025;-75
2021/10/10 04:49:54;;;;;;;24.13;11.82;;;;;;;-1.36;86.67;103188.06;5058618;28;20562;-75
2021/10/10 04:52:20;;;;;;;22.13;12.13;;;;;;;-1.37;86.65;103195.09;5053062;28;20395;-74
2021/10/10 04:54:47;;;;;;;24.92;12.63;;;;;;;-1.41;87.40;103198.06;5064587;28;20063;-75
2021/10/10 04:57:16;;;;;;;28.92;11.82;;;;;;;-1.41;86.54;103196.28;5065385;28;20031;-75
2021/10/10 04:59:49;;;;;;;28.85;12.70;;;;;;;-1.42;86.41;103193.75;5063749;28;20023;-75
2021/10/10 05:02:17;;;;;;;26.42;12.65;;;;;;;-1.42;86.67;103188.50;5065908;28;20111;-75
2021/10/10 05:04:42;;;;;;;29.77;13.23;;;;;;;-1.39;86.66;103190.91;5061732;28;20032;-75
2021/10/10 05:07:08;;;;;;;25.95;13.10;;;;;;;-1.42;86.26;103188.50;5064122;28;20028;-78
2021/10/10 05:09:34;;;;;;;27.45;12.35;;;;;;;-1.42;85.97;103183.25;5059241;28;20038;-77
2021/10/10 05:11:59;;;;;;;27.58;12.98;;;;;;;-1.46;86.03;103184.41;5060342;28;20027;-78
2021/10/10 05:14:25;;;;;;;25.48;13.07;;;;;;;-1.48;86.38;103174.00;5062819;28;20024;-78
2021/10/10 05:16:50;;;;;;;24.92;13.20;;;;;;;-1.47;85.97;103190.59;5061534;28;20601;-77
2021/10/10 05:19:16;;;;;;;24.70;12.25;;;;;;;-1.47;86.02;103188.81;5061736;28;20032;-77
2021/10/10 05:21:41;;;;;;;24.92;13.02;;;;;;;-1.49;86.15;103182.00;5064837;28;20060;-77
2021/10/10 05:24:07;;;;;;;26.55;12.85;;;;;;;-1.49;86.42;103176.72;5061145;28;20028;-78
2021/10/10 05:26:32;;;;;;;24.13;12.27;;;;;;;-1.48;85.95;103178.41;5066314;28;20028;-77
2021/10/10 05:28:58;;;;;;;25.98;13.40;;;;;;;-1.52;86.32;103180.41;5063971;28;20024;-77
2021/10/10 05:31:23;;;;;;;23.60;12.68;;;;;;;-1.52;86.57;103183.06;5060288;28;20058;-77
2021/10/10 05:33:49;;;;;;;26.52;13.50;;;;;;;-1.52;86.97;103173.38;5061993;28;20087;-78
2021/10/10 05:36:14;;;;;;;25.35;13.02;;;;;;;-1.49;86.61;103177.56;5055961;28;20117;-77
2021/10/10 05:38:40;;;;;;;28.40;13.40;;;;;;;-1.40;86.25;103183.97;5063441;28;20267;-77
2021/10/10 05:41:06;;;;;;;26.70;13.20;;;;;;;-1.41;87.06;103188.41;5065189;28;20040;-78
2021/10/10 05:43:31;;;;;;;24.17;12.15;;;;;;;-1.29;86.49;103181.38;5064338;28;20033;-78
2021/10/10 05:46:00;;;;;;;24.98;12.10;;;;;;;-1.22;86.58;103174.75;5064787;28;20028;-78
2021/10/10 05:48:25;;;;;;;24.50;12.38;;;;;;;-1.10;86.49;103175.63;5063235;28;20693;-78
2021/10/10 05:50:51;;;;;;;26.35;12.90;;;;;;;-1.02;86.20;103171.50;5063859;28;20036;-78
2021/10/10 05:53:16;;;;;;;26.42;13.10;;;;;;;-0.89;85.84;103165.34;5059061;28;20024;-78
2021/10/10 05:55:42;;;;;;;27.52;13.80;;;;;;;-0.82;85.14;103172.66;5066605;28;20029;-79
2021/10/10 05:58:15;;;;;;;28.67;13.63;;;;;;;-0.71;85.27;103167.44;5070795;28;20024;-79
2021/10/10 06:00:41;;;;;;;24.88;11.82;;;;;;;-0.57;84.41;103176.91;5086376;28;20052;-79
2021/10/10 06:03:07;;;;;;;28.95;13.85;;;;;;;-0.44;84.17;103176.84;5071209;28;20281;-79
2021/10/10 06:05:33;;;;;;;26.80;13.68;;;;;;;-0.33;83.99;103168.97;5068154;28;20028;-79
2021/10/10 06:07:59;;;;;;;26.40;13.30;;;;;;;-0.21;83.43;103173.28;5070455;28;20051;-79
2021/10/10 06:10:24;;;;;;;26.50;13.05;;;;;;;-0.09;83.39;103176.78;5075714;28;20073;-79
2021/10/10 06:12:50;;;;;;;27.92;13.80;;;;;;;0.07;82.58;103179.91;5070617;28;20054;-80
2021/10/10 06:15:15;;;;;;;23.85;13.30;;;;;;;0.16;83.24;103181.78;5074978;28;20024;-80
2021/10/10 06:17:41;;;;;;;24.70;12.48;;;;;;;0.32;82.71;103189.34;5087156;28;20016;-79
2021/10/10 06:20:08;;;;;;;21.88;12.25;;;;;;;0.43;82.65;103191.97;5075771;28;20101;-79
2021/10/10 06:22:35;;;;;;;20.10;11.60;;;;;;;0.54;82.00;103191.97;5076582;28;20020;-79
2021/10/10 06:25:00;;;;;;;25.58;13.68;;;;;;;0.69;81.90;103189.03;5073757;28;20605;-79
2021/10/10 06:27:26;;;;;;;26.98;12.05;;;;;;;0.80;81.75;103181.94;5070274;28;20025;-78
2021/10/10 06:29:52;;;;;;;24.25;12.73;;;;;;;0.94;81.95;103180.00;5068122;28;20064;-79
2021/10/10 06:32:17;;;;;;;23.35;12.75;;;;;;;1.11;81.13;103182.09;5070763;28;20371;-77
2021/10/10 06:34:43;;;;;;;24.13;12.77;;;;;;;1.23;81.74;103182.88;5071195;28;20062;-77
2021/10/10 06:37:08;;;;;;;25.42;12.43;;;;;;;1.35;81.61;103182.69;5064299;28;20025;-77
2021/10/10 06:39:35;;;;;;;24.23;11.93;;;;;;;1.49;81.40;103185.03;5066598;28;20028;-77
2021/10/10 06:42:01;;;;;;;25.02;13.07;;;;;;;1.61;81.60;103179.66;5067763;28;20028;-77
2021/10/10 06:44:29;;;;;;;25.85;14.00;;;;;;;1.77;81.62;103180.03;5068034;28;20446;-77
2021/10/10 06:46:54;;;;;;;27.15;14.05;;;;;;;1.99;81.54;103187.81;5067143;28;20028;-77
2021/10/10 06:49:20;;;;;;;28.75;13.15;;;;;;;2.16;81.51;103185.53;5064931;28;20035;-77
2021/10/10 06:51:45;;;;;;;25.70;13.48;;;;;;;2.31;81.55;103186.81;5066625;28;20025;-76
2021/10/10 06:54:11;;;;;;;26.60;13.80;;;;;;;2.46;81.38;103182.84;5064798;28;20039;-76
2021/10/10 06:56:36;;;;;;;24.20;13.25;;;;;;;2.64;81.63;103183.84;5068969;28;20046;-76
2021/10/10 06:59:03;;;;;;;25.10;13.80;;;;;;;2.83;82.27;103176.91;5068925;28;20673;-76
2021/10/10 07:01:29;;;;;;;31.40;14.93;;;;;;;2.99;82.49;103177.22;5066579;28;20030;-76
2021/10/10 07:03:55;;;;;;;31.40;14.90;;;;;;;3.18;82.10;103187.81;5065334;28;20030;-77
2021/10/10 07:06:21;;;;;;;32.15;16.33;;;;;;;3.38;82.04;103179.84;5068789;28;20028;-77
2021/10/10 07:08:47;;;;;;;32.95;16.38;;;;;;;3.62;81.71;103180.25;5065998;28;20394;-77
2021/10/10 07:11:12;;;;;;;28.08;14.95;;;;;;;3.84;81.98;103179.91;5064084;28;20028;-76
2021/10/10 07:13:38;;;;;;;30.02;14.88;;;;;;;4.03;81.81;103181.66;5066382;28;20031;-77
2021/10/10 07:16:03;;;;;;;30.55;16.75;;;;;;;4.30;79.77;103178.16;5068640;28;20051;-76
2021/10/10 07:18:41;;;;;;;35.75;17.42;;;;;;;4.53;79.42;103181.28;5063576;28;20024;-76
2021/10/10 07:21:38;;;;;;;31.83;17.50;;;;;;;4.76;78.60;103177.22;5065230;28;20075;-76
2021/10/10 07:26:21;;;;;;;31.10;16.67;;;;;;;5.16;77.59;103179.41;5065423;28;20036;-76
2021/10/10 07:28:46;;;;;;;34.70;17.73;;;;;;;5.36;77.54;103181.91;5065244;28;20089;-76
2021/10/10 07:31:12;;;;;;;35.35;17.80;;;;;;;5.52;77.09;103189.16;5063086;28;20038;-76
2021/10/10 07:33:40;;;;;;;33.38;18.05;;;;;;;5.70;77.37;103184.66;5062972;28;20100;-76
2021/10/10 07:36:06;;;;;;;33.67;18.17;;;;;;;5.91;76.34;103189.63;5062441;28;20028;-76
2021/10/10 07:38:32;;;;;;;32.17;17.60;;;;;;;6.11;75.35;103192.91;5063797;28;20111;-76
2021/10/10 07:41:03;;;;;;;32.65;18.08;;;;;;;6.29;74.47;103189.19;5064288;28;20131;-76
2021/10/10 07:43:30;;;;;;;31.98;17.83;;;;;;;6.49;73.87;103195.06;5064261;28;20041;-76
2021/10/10 07:46:05;;;;;;;30.80;17.80;;;;;;;6.66;73.87;103195.97;5063240;28;20108;-77
2021/10/10 07:48:30;;;;;;;;;;;;;;;6.79;73.65;103190.97;5064459;28;20894;-76
2021/10/10 07:50:56;;;;;;;30.00;16.65;;;;;;;6.87;72.71;103190.19;5063155;28;19926;-76
2021/10/10 07:53:21;;;;;;;32.75;17.60;;;;;;;7.07;72.03;103191.53;5065052;28;20025;-76
2021/10/10 07:55:47;;;;;;;32.00;17.35;;;;;;;7.22;71.97;103187.22;5062071;28;20490;-76
2021/10/10 07:58:12;;;;;;;26.42;15.80;;;;;;;7.37;71.51;103187.41;5065974;28;20028;-77
2021/10/10 08:00:38;;;;;;;30.83;17.27;;;;;;;7.49;70.54;103182.53;5060113;28;20708;-76
2021/10/10 08:03:04;;;;;;;30.40;17.30;;;;;;;7.64;70.33;103185.34;5062296;28;20024;-76
2021/10/10 08:05:40;;;;;;;31.73;17.02;;;;;;;7.75;69.25;103180.50;5058214;28;20417;-76
2021/10/10 08:08:06;;;;;;;30.60;16.60;;;;;;;7.90;69.23;103188.66;5065344;28;20032;-76
2021/10/10 08:10:32;;;;;;;28.65;16.40;;;;;;;8.02;68.82;103189.94;5065389;28;20119;-76
2021/10/10 08:12:57;;;;;;;30.55;16.90;;;;;;;8.17;68.52;103190.91;5059923;28;20067;-76
2021/10/10 08:15:23;;;;;;;27.30;15.85;;;;;;;8.30;67.83;103197.53;5060171;28;20029;-76
2021/10/10 08:17:48;;;;;;;29.92;16.10;;;;;;;8.39;67.35;103191.16;5062657;28;20024;-76
2021/10/10 08:20:14;;;;;;;27.98;15.45;;;;;;;8.54;67.54;103192.09;5054928;28;20054;-76
2021/10/10 08:22:40;;;;;;;30.55;16.70;;;;;;;8.71;66.80;103191.00;5062685;28;20025;-76
2021/10/10 08:25:11;;;;;;;26.02;14.93;;;;;;;8.84;66.27;103190.44;5077186;28;20097;-76
2021/10/10 08:27:40;;;;;;;30.15;15.98;;;;;;;8.99;65.73;103179.81;5057280;28;20052;-76
2021/10/10 08:30:11;;;;;;;30.35;15.52;;;;;;;9.14;65.31;103180.69;5058543;28;20047;-76
2021/10/10 08:32:38;;;;;;;29.65;14.98;;;;;;;9.24;64.56;103185.78;5060860;28;20398;-77
2021/10/10 08:35:06;;;;;;;25.55;15.02;;;;;;;9.25;64.03;103174.09;5061495;28;20040;-76
2021/10/10 08:37:31;;;;;;;23.02;14.55;;;;;;;9.34;63.83;103181.03;5062522;28;20067;-76
2021/10/10 08:39:57;;;;;;;26.05;14.68;;;;;;;9.40;63.00;103174.97;5057632;28;20072;-76
2021/10/10 08:42:32;;;;;;;23.70;14.10;;;;;;;9.56;62.95;103165.94;5060414;28;20538;-76
2021/10/10 08:45:08;;;;;;;26.63;14.10;;;;;;;9.59;62.65;103168.25;5060877;28;20173;-76
2021/10/10 08:47:42;;;;;;;24.95;13.77;;;;;;;9.69;62.01;103167.00;5063233;28;20025;-77
2021/10/10 08:50:23;;;;;;;24.60;12.15;;;;;;;9.73;60.31;103164.78;5061241;28;20064;-76
2021/10/10 08:52:56;;;;;;;22.00;10.73;;;;;;;9.72;59.41;103167.63;5060599;28;20012;-76
2021/10/10 08:55:22;;;;;;;21.67;13.80;;;;;;;9.74;60.44;103166.44;5061261;28;20029;-77
2021/10/10 08:57:50;;;;;;;21.80;11.73;;;;;;;9.77;60.46;103166.06;5058063;28;20040;-76
2021/10/10 09:00:49;;;;;;;24.75;12.50;;;;;;;9.77;60.25;103160.72;5059056;28;20047;-77
2021/10/10 09:03:11;;;;;;;22.27;12.40;;;;;;;10.10;60.77;103150.47;5057377;28;20545;-77
2021/10/10 09:05:37;;;;;;;21.10;12.05;;;;;;;10.39;59.83;103152.28;5062692;28;20238;-76
2021/10/10 09:08:03;;;;;;;19.83;11.27;;;;;;;10.54;59.04;103155.75;5061448;28;20029;-77
2021/10/10 09:10:33;;;;;;;17.90;12.05;;;;;;;10.65;57.80;103145.56;5061558;28;20052;-76
2021/10/10 09:13:14;;;;;;;20.88;11.52;;;;;;;10.70;56.30;103140.47;5058974;28;20387;-77
2021/10/10 09:15:42;;;;;;;17.52;10.60;;;;;;;10.82;55.74;103138.94;5062605;28;20029;-77
2021/10/10 09:18:11;;;;;;;19.67;10.65;;;;;;;11.00;56.37;103135.81;5063448;28;20032;-77
2021/10/10 09:20:47;;;;;;;19.75;10.15;;;;;;;11.11;54.63;103146.00;5062936;28;20498;-76
2021/10/10 09:23:16;;;;;;;17.50;9.95;;;;;;;11.18;54.35;103134.31;5059682;28;20043;-76
2021/10/10 09:26:00;;;;;;;15.85;9.98;;;;;;;11.28;54.41;103130.44;5060568;28;20516;-77
2021/10/10 09:28:28;;;;;;;17.45;10.73;;;;;;;11.54;54.42;103132.53;5069966;28;20586;-77
2021/10/10 09:31:05;;;;;;;16.85;10.20;;;;;;;11.63;52.77;103132.16;5057440;28;20119;-76
2021/10/10 09:33:56;;;;;;;19.42;13.68;;;;;;;11.76;52.88;103131.41;5059658;28;20147;-76
2021/10/10 09:36:25;;;;;;;22.42;13.65;;;;;;;12.05;52.80;103133.06;5060549;28;20399;-77
2021/10/10 09:41:26;;;;;;;14.30;8.93;;;;;;;11.97;48.52;103123.28;5058242;28;20052;-76
2021/10/10 09:44:11;;;;;;;19.23;9.98;;;;;;;11.79;50.07;103115.75;5057879;28;20032;-77
2021/10/10 09:46:41;;;;;;;15.75;10.73;;;;;;;11.96;50.33;103115.44;5060434;28;20428;-77
2021/10/10 09:49:30;;;;;;;18.10;9.80;;;;;;;12.32;50.12;103116.00;5060569;28;20040;-76
2021/10/10 09:52:09;;;;;;;15.65;9.93;;;;;;;12.45;50.12;103111.69;5062017;28;20016;-77
2021/10/10 09:54:57;;;;;;;16.50;9.35;;;;;;;12.57;49.61;103113.59;5055986;28;20028;-77
2021/10/10 09:57:24;;;;;;;20.02;10.77;;;;;;;12.58;48.86;103098.28;5057225;28;20025;-77
2021/10/10 09:59:53;;;;;;;16.52;8.95;;;;;;;12.51;47.71;103097.44;5062199;28;20155;-77
2021/10/10 10:02:36;;;;;;;17.42;8.65;;;;;;;12.64;47.74;103097.47;5059957;28;20025;-77
2021/10/10 10:05:01;;;;;;;12.13;8.50;;;;;;;12.98;48.01;103094.59;5062004;28;20059;-77
2021/10/10 10:07:28;;;;;;;11.40;6.57;;;;;;;13.21;46.16;103082.59;5063795;28;20570;-77
2021/10/10 10:09:53;;;;;;;9.77;6.40;;;;;;;13.34;45.83;103092.53;5062002;28;20380;-77
2021/10/10 10:12:20;;;;;;;9.88;6.50;;;;;;;13.22;43.22;103090.47;5059234;28;20028;-77
2021/10/10 10:14:51;;;;;;;13.18;7.53;;;;;;;13.04;41.86;103095.63;5063659;28;20028;-77
2021/10/10 10:17:18;;;;;;;10.85;6.93;;;;;;;13.09;43.84;103082.34;5073625;28;20124;-77
2021/10/10 10:19:45;;;;;;;10.60;6.85;;;;;;;13.24;42.82;103096.47;5063980;28;20048;-77
2021/10/10 10:22:13;;;;;;;12.52;6.78;;;;;;;13.46;42.99;103080.88;5065192;28;20033;-77
2021/10/10 10:24:42;;;;;;;12.60;6.72;;;;;;;13.66;42.33;103088.13;5062829;28;20112;-77
2021/10/10 10:27:08;;;;;;;12.95;6.70;;;;;;;13.80;42.18;103084.31;5063059;28;20043;-76
2021/10/10 10:29:37;;;;;;;14.48;7.65;;;;;;;13.84;41.86;103080.19;5059458;28;20024;-76
2021/10/10 10:32:08;;;;;;;13.27;7.10;;;;;;;13.94;42.28;103080.53;5060241;28;20111;-75
2021/10/10 10:34:33;;;;;;;8.50;6.22;;;;;;;13.95;41.03;103079.50;5054897;28;20020;-75
2021/10/10 10:37:02;;;;;;;9.40;5.40;;;;;;;13.72;38.20;103080.00;5073101;28;20055;-74
2021/10/10 10:39:41;;;;;;;21.27;13.65;;;;;;;13.75;38.14;103079.56;5073675;28;20028;-76
2021/10/10 10:42:08;;;;;;;17.95;9.60;;;;;;;13.91;38.50;103073.72;5056536;28;20036;-75
2021/10/10 10:44:45;;;;;;;12.93;7.00;;;;;;;13.91;37.75;103075.59;5056272;28;20032;-75
2021/10/10 10:47:18;;;;;;;9.60;5.50;;;;;;;14.01;35.90;103075.97;5054782;28;20085;-76
2021/10/10 10:49:50;;;;;;;9.20;5.65;;;;;;;13.97;36.68;103077.41;5057827;28;20025;-75
2021/10/10 10:52:30;;;;;;;10.57;5.93;;;;;;;14.17;35.80;103072.75;5057726;28;20028;-76
2021/10/10 10:55:05;;;;;;;11.77;6.20;;;;;;;14.35;36.62;103065.81;5055258;28;20166;-75
2021/10/10 10:57:46;;;;;;;12.20;5.90;;;;;;;14.47;36.40;103064.13;5072556;28;20029;-75
2021/10/10 11:00:21;;;;;;;9.48;5.32;;;;;;;14.60;35.75;103064.03;5058595;28;20085;-75
2021/10/10 11:02:58;;;;;;;8.38;5.53;;;;;;;14.66;35.81;103060.44;5058888;28;20029;-75
2021/10/10 11:05:47;;;;;;;9.43;5.20;;;;;;;14.34;34.98;103058.75;5058351;28;20032;-75
2021/10/10 11:08:15;;;;;;;8.88;4.45;;;;;;;14.36;35.21;103057.53;5058184;28;20644;-75
2021/10/10 11:11:04;;;;;;;10.02;5.35;;;;;;;14.36;35.72;103054.84;5056866;28;20078;-75
2021/10/10 11:13:38;;;;;;;15.60;5.78;;;;;;;14.69;35.64;103054.59;5052909;28;20028;-76
2021/10/10 11:16:19;;;;;;;9.32;5.70;;;;;;;15.03;36.03;103050.59;5057652;28;20506;-75
2021/10/10 11:18:53;;;;;;;6.70;4.03;;;;;;;14.81;33.94;103052.84;5054152;28;20679;-75
2021/10/10 11:21:23;;;;;;;11.13;6.13;;;;;;;15.57;32.94;103053.56;5055302;28;20427;-75
2021/10/10 11:23:51;;;;;;;9.65;5.55;;;;;;;16.86;29.59;103053.03;5057034;28;20039;-75